createdAt,value
2023-04-29T00:00:10.314Z,66.69
2023-04-29T00:03:37.262Z,66.21
2023-04-29T00:06:59.114Z,66.63
2023-04-29T00:10:20.569Z,66.47
2023-04-29T00:13:41.717Z,66.15
2023-04-29T00:17:02.850Z,66.42
2023-04-29T00:20:25.590Z,66.20
2023-04-29T00:23:46.775Z,66.72
2023-04-29T00:27:08.019Z,66.58
2023-04-29T00:30:29.867Z,66.83
2023-04-29T00:33:51.557Z,66.86
2023-04-29T00:37:14.127Z,67.08
2023-04-29T00:40:36.227Z,67.00
2023-04-29T00:43:57.604Z,67.28
2023-04-29T00:47:19.744Z,67.28
2023-04-29T00:50:42.080Z,67.51
2023-04-29T00:54:05.380Z,67.88
2023-04-29T00:57:29.128Z,68.18
2023-04-29T01:00:50.988Z,68.37
2023-04-29T01:04:12.637Z,68.39
2023-04-29T01:07:44.070Z,68.25
2023-04-29T01:11:10.843Z,68.64
2023-04-29T01:14:34.506Z,68.77
2023-04-29T01:18:00.856Z,68.76
2023-04-29T01:21:22.863Z,68.89
2023-04-29T01:24:46.363Z,68.83
2023-04-29T01:28:19.138Z,68.84
2023-04-29T01:31:48.088Z,69.38
2023-04-29T01:35:17.645Z,69.22
2023-04-29T01:38:46.012Z,69.26
2023-04-29T01:42:16.945Z,69.58
2023-04-29T01:45:41.306Z,69.74
2023-04-29T01:49:03.292Z,70.16
2023-04-29T01:52:25.287Z,70.02
2023-04-29T01:55:50.889Z,70.50
2023-04-29T01:59:24.170Z,70.98
2023-04-29T02:03:02.237Z,71.04
2023-04-29T02:06:33.588Z,70.32
2023-04-29T02:09:58.183Z,71.03
2023-04-29T02:13:20.503Z,70.96
2023-04-29T02:16:45.441Z,70.95
2023-04-29T02:20:08.458Z,70.60
2023-04-29T02:23:31.157Z,70.89
2023-04-29T02:26:53.020Z,71.55
2023-04-29T02:30:14.803Z,70.82
2023-04-29T02:33:38.172Z,71.08
2023-04-29T02:37:00.121Z,71.72
2023-04-29T02:40:21.722Z,71.84
2023-04-29T02:43:44.555Z,72.29
2023-04-29T02:47:06.079Z,72.69
2023-04-29T02:50:29.256Z,73.02
2023-04-29T02:53:50.507Z,73.13
2023-04-29T02:57:11.756Z,73.60
2023-04-29T03:00:33.372Z,74.05
2023-04-29T03:03:55.120Z,74.25
2023-04-29T03:07:18.636Z,74.67
2023-04-29T03:10:41.574Z,75.12
2023-04-29T03:14:03.229Z,75.03
2023-04-29T03:17:27.866Z,75.09
2023-04-29T03:20:49.561Z,75.47
2023-04-29T03:24:12.567Z,75.71
2023-04-29T03:27:33.917Z,75.61
2023-04-29T03:30:56.772Z,75.59
2023-04-29T03:34:18.717Z,76.17
2023-04-29T03:37:46.501Z,76.59
2023-04-29T03:41:29.608Z,76.20
2023-04-29T03:44:51.284Z,76.49
2023-04-29T03:48:13.553Z,76.48
2023-04-29T03:51:35.169Z,77.20
2023-04-29T03:55:05.459Z,77.42
2023-04-29T03:58:28.766Z,78.07
2023-04-29T04:01:50.799Z,77.68
2023-04-29T04:05:13.002Z,78.02
2023-04-29T04:08:38.574Z,78.21
2023-04-29T04:12:07.705Z,78.21
2023-04-29T04:15:31.117Z,78.53
2023-04-29T04:18:53.531Z,78.37
2023-04-29T04:22:17.148Z,78.62
2023-04-29T04:25:50.909Z,79.29
2023-04-29T04:29:32.851Z,78.77
2023-04-29T04:33:01.725Z,79.30
2023-04-29T04:36:23.212Z,79.36
2023-04-29T04:39:44.868Z,79.83
2023-04-29T04:43:08.700Z,80.31
2023-04-29T04:46:34.364Z,81.56
2023-04-29T04:50:07.002Z,81.53
2023-04-29T04:53:28.198Z,82.42
2023-04-29T04:56:53.473Z,83.05
2023-04-29T05:00:15.904Z,83.16
2023-04-29T05:03:37.738Z,83.52
2023-04-29T05:07:00.720Z,83.19
2023-04-29T05:10:28.355Z,83.18
2023-04-29T05:13:54.250Z,83.47
2023-04-29T05:17:15.861Z,83.39
2023-04-29T05:20:38.134Z,82.99
2023-04-29T05:24:01.643Z,83.72
2023-04-29T05:27:22.939Z,83.74
2023-04-29T05:30:45.055Z,84.09
2023-04-29T05:34:07.044Z,84.06
2023-04-29T05:37:31.203Z,84.79
2023-04-29T05:41:02.606Z,84.90
2023-04-29T05:44:42.655Z,84.15
2023-04-29T05:48:03.919Z,84.52
2023-04-29T05:51:25.546Z,85.36
2023-04-29T05:54:47.272Z,85.44
2023-04-29T05:58:10.377Z,86.14
2023-04-29T06:01:32.887Z,86.67
2023-04-29T06:04:55.007Z,86.98
2023-04-29T06:08:19.624Z,87.09
2023-04-29T06:11:45.659Z,88.23
2023-04-29T06:15:09.365Z,88.35
2023-04-29T06:18:31.037Z,88.65
2023-04-29T06:21:53.723Z,88.60
2023-04-29T06:25:15.299Z,89.08
2023-04-29T06:28:42.232Z,89.15
2023-04-29T06:32:05.774Z,90.70
2023-04-29T06:35:27.587Z,90.25
2023-04-29T06:39:08.779Z,90.79
2023-04-29T06:43:02.262Z,91.25
2023-04-29T06:46:44.082Z,90.98
2023-04-29T06:50:23.671Z,90.13
2023-04-29T06:53:45.344Z,90.76
2023-04-29T06:57:07.299Z,90.17
2023-04-29T07:00:28.609Z,90.37
2023-04-29T07:03:50.059Z,88.89
2023-04-29T07:07:15.940Z,88.54
2023-04-29T07:10:37.760Z,88.44
2023-04-29T07:13:59.396Z,88.69
2023-04-29T07:17:24.931Z,88.24
2023-04-29T07:20:48.029Z,88.78
2023-04-29T07:24:11.466Z,89.79
2023-04-29T07:27:35.230Z,89.82
2023-04-29T07:30:57.273Z,89.73
2023-04-29T07:34:19.202Z,90.31
2023-04-29T07:37:43.827Z,90.43
2023-04-29T07:41:10.997Z,89.83
2023-04-29T07:44:32.307Z,89.13
2023-04-29T07:47:54.104Z,88.94
2023-04-29T07:51:16.296Z,89.80
2023-04-29T07:54:37.905Z,89.40
2023-04-29T07:58:01.122Z,89.63
2023-04-29T08:01:22.593Z,88.66
2023-04-29T08:04:44.383Z,89.30
2023-04-29T08:08:07.706Z,89.68
2023-04-29T08:11:29.304Z,89.46
2023-04-29T08:14:52.163Z,90.05
2023-04-29T08:18:14.884Z,90.32
2023-04-29T08:21:36.370Z,90.07
2023-04-29T08:24:57.712Z,89.16
2023-04-29T08:28:19.680Z,89.29
2023-04-29T08:31:42.697Z,89.13
2023-04-29T08:35:04.066Z,89.23
2023-04-29T08:38:25.410Z,89.21
2023-04-29T08:41:51.298Z,88.89
2023-04-29T08:45:17.366Z,88.56
2023-04-29T08:48:43.467Z,88.66
2023-04-29T08:52:06.767Z,88.90
2023-04-29T08:55:28.005Z,89.08
2023-04-29T08:58:54.551Z,89.19
2023-04-29T09:02:18.896Z,89.53
2023-04-29T09:05:43.278Z,89.54
2023-04-29T09:09:05.295Z,89.25
2023-04-29T09:12:26.841Z,89.02
2023-04-29T09:15:48.439Z,89.20
2023-04-29T09:19:09.760Z,88.79
2023-04-29T09:22:48.696Z,87.87
2023-04-29T09:26:10.200Z,87.61
2023-04-29T09:29:33.188Z,87.68
2023-04-29T09:33:06.844Z,87.68
2023-04-29T09:36:42.785Z,86.86
2023-04-29T09:40:08.344Z,86.98
2023-04-29T09:43:30.201Z,86.75
2023-04-29T09:46:57.264Z,86.80
2023-04-29T09:50:19.834Z,86.82
2023-04-29T09:53:41.257Z,87.50
2023-04-29T09:57:06.131Z,87.72
2023-04-29T10:00:32.457Z,87.31
2023-04-29T10:03:57.633Z,86.50
2023-04-29T10:07:20.091Z,86.64
2023-04-29T10:10:41.804Z,86.97
2023-04-29T10:14:07.096Z,86.06
2023-04-29T10:17:37.364Z,85.65
2023-04-29T10:21:02.282Z,85.12
2023-04-29T10:24:24.276Z,84.73
2023-04-29T10:27:46.862Z,84.63
2023-04-29T10:31:10.056Z,84.12
2023-04-29T10:34:34.040Z,84.58
2023-04-29T10:38:01.067Z,83.45
2023-04-29T10:41:25.600Z,82.20
2023-04-29T10:45:24.325Z,81.83
2023-04-29T10:48:47.331Z,81.85
2023-04-29T10:52:08.724Z,80.47
2023-04-29T10:55:30.079Z,80.59
2023-04-29T10:58:51.765Z,80.21
2023-04-29T11:02:14.884Z,79.44
2023-04-29T11:05:38.812Z,80.16
2023-04-29T11:09:05.067Z,79.59
2023-04-29T11:12:26.448Z,79.59
2023-04-29T11:15:47.931Z,79.54
2023-04-29T11:19:12.221Z,78.49
2023-04-29T11:22:34.680Z,76.68
2023-04-29T11:25:56.168Z,76.62
2023-04-29T11:29:21.269Z,77.15
2023-04-29T11:32:43.784Z,76.02
2023-04-29T11:36:06.188Z,74.65
2023-04-29T11:39:29.391Z,74.97
2023-04-29T11:42:51.281Z,74.17
2023-04-29T11:46:14.257Z,73.60
2023-04-29T11:49:37.708Z,72.75
2023-04-29T11:52:59.882Z,72.65
2023-04-29T11:56:25.399Z,72.62
2023-04-29T11:59:48.097Z,72.81
2023-04-29T12:03:15.513Z,72.83
2023-04-29T12:06:37.276Z,72.99
2023-04-29T12:09:58.517Z,73.13
2023-04-29T12:13:22.144Z,73.43
2023-04-29T12:16:43.864Z,73.34
2023-04-29T12:20:06.296Z,73.19
2023-04-29T12:23:27.861Z,73.04
2023-04-29T12:26:50.652Z,73.44
2023-04-29T12:30:14.152Z,73.76
2023-04-29T12:33:35.875Z,72.89
2023-04-29T12:36:58.551Z,72.54
2023-04-29T12:40:21.542Z,72.04
2023-04-29T12:43:43.708Z,71.53
2023-04-29T12:47:11.364Z,71.96
2023-04-29T12:50:34.460Z,70.92
2023-04-29T12:53:55.874Z,69.64
2023-04-29T12:57:18.377Z,69.12
2023-04-29T13:00:40.191Z,66.44
2023-04-29T13:04:05.131Z,66.00
2023-04-29T13:07:27.051Z,66.12
2023-04-29T13:10:48.372Z,66.80
2023-04-29T13:14:11.379Z,66.74
2023-04-29T13:17:33.390Z,66.32
2023-04-29T13:20:56.518Z,66.68
2023-04-29T13:24:20.215Z,66.34
2023-04-29T13:27:41.668Z,65.51
2023-04-29T13:31:03.090Z,65.63
2023-04-29T13:34:24.813Z,65.82
2023-04-29T13:37:48.180Z,65.94
2023-04-29T13:41:14.434Z,66.11
2023-04-29T13:44:59.931Z,64.28
2023-04-29T13:48:49.896Z,64.27
2023-04-29T13:56:15.502Z,63.20
2023-04-29T14:02:36.813Z,62.33
2023-04-29T14:05:58.729Z,62.67
2023-04-29T14:09:20.687Z,63.00
2023-04-29T14:12:43.698Z,62.96
2023-04-29T14:16:07.084Z,63.47
2023-04-29T14:19:28.690Z,63.14
2023-04-29T14:22:49.819Z,63.46
2023-04-29T14:26:27.316Z,63.15
2023-04-29T14:29:51.785Z,63.05
2023-04-29T14:33:13.740Z,63.64
2023-04-29T14:36:35.096Z,62.49
2023-04-29T14:39:57.037Z,63.28
2023-04-29T14:43:18.665Z,63.25
2023-04-29T14:46:42.097Z,62.24
2023-04-29T14:50:04.249Z,62.62
2023-04-29T14:53:25.670Z,61.85
2023-04-29T14:56:46.949Z,61.47
2023-04-29T15:00:10.977Z,60.85
2023-04-29T15:03:34.274Z,60.37
2023-04-29T15:07:04.506Z,60.32
2023-04-29T15:10:25.983Z,60.18
2023-04-29T15:13:47.242Z,59.30
2023-04-29T15:17:08.631Z,60.16
2023-04-29T15:20:32.425Z,58.93
2023-04-29T15:23:53.947Z,59.19
2023-04-29T15:27:16.621Z,59.88
2023-04-29T15:30:38.254Z,60.91
2023-04-29T15:34:00.065Z,59.74
2023-04-29T15:37:25.010Z,59.89
2023-04-29T15:40:46.790Z,59.48
2023-04-29T15:44:08.361Z,59.04
2023-04-29T15:47:29.906Z,59.00
2023-04-29T15:50:51.101Z,58.69
2023-04-29T15:54:13.604Z,58.76
2023-04-29T15:57:40.877Z,59.26
2023-04-29T16:01:02.016Z,59.10
2023-04-29T16:04:23.696Z,59.20
2023-04-29T16:07:44.839Z,59.65
2023-04-29T16:11:07.435Z,59.81
2023-04-29T16:14:29.133Z,59.76
2023-04-29T16:17:50.646Z,59.84
2023-04-29T16:21:13.573Z,60.06
2023-04-29T16:24:35.091Z,59.54
2023-04-29T16:27:58.735Z,59.76
2023-04-29T16:31:20.294Z,60.28
2023-04-29T16:34:42.096Z,60.91
2023-04-29T16:38:03.241Z,59.46
2023-04-29T16:41:26.151Z,58.13
2023-04-29T16:44:49.306Z,56.75
2023-04-29T16:48:11.188Z,56.30
2023-04-29T16:51:33.525Z,56.45
2023-04-29T16:54:56.687Z,56.07
2023-04-29T16:58:18.082Z,54.01
2023-04-29T17:01:41.122Z,49.03
2023-04-29T17:05:02.625Z,49.64
2023-04-29T17:08:25.488Z,48.99
2023-04-29T17:11:47.097Z,46.64
2023-04-29T17:15:09.397Z,46.36
2023-04-29T17:18:32.718Z,46.41
2023-04-29T17:21:54.225Z,46.45
2023-04-29T17:25:16.229Z,46.36
2023-04-29T17:28:38.457Z,46.81
2023-04-29T17:32:02.146Z,46.71
2023-04-29T17:35:25.250Z,46.88
2023-04-29T17:38:47.028Z,46.38
2023-04-29T17:42:08.405Z,47.84
2023-04-29T17:45:30.104Z,47.41
2023-04-29T17:48:51.454Z,47.39
2023-04-29T17:52:15.194Z,46.24
2023-04-29T17:55:39.332Z,47.11
2023-04-29T17:59:00.815Z,46.39
2023-04-29T18:02:22.132Z,46.15
2023-04-29T18:05:44.010Z,45.85
2023-04-29T18:09:06.996Z,46.02
2023-04-29T18:12:28.674Z,46.17
2023-04-29T18:15:50.635Z,45.75
2023-04-29T18:19:15.114Z,46.13
2023-04-29T18:22:36.536Z,46.89
2023-04-29T18:25:59.914Z,46.68
2023-04-29T18:29:22.408Z,46.68
2023-04-29T18:32:44.131Z,47.21
2023-04-29T18:36:06.533Z,47.62
2023-04-29T18:39:28.689Z,48.04
2023-04-29T18:42:51.964Z,48.04
2023-04-29T18:46:13.550Z,47.87
2023-04-29T18:49:37.362Z,48.39
2023-04-29T18:52:59.882Z,48.82
2023-04-29T18:56:22.134Z,51.13
2023-04-29T18:59:44.948Z,51.68
2023-04-29T19:03:06.537Z,53.61
2023-04-29T19:06:28.709Z,53.13
2023-04-29T19:09:50.318Z,51.76
2023-04-29T19:13:12.177Z,52.55
2023-04-29T19:16:37.258Z,51.84
2023-04-29T19:19:59.120Z,52.51
2023-04-29T19:23:21.082Z,53.23
2023-04-29T19:26:42.423Z,51.35
2023-04-29T19:30:04.263Z,51.59
2023-04-29T19:33:27.123Z,51.42
2023-04-29T19:36:48.647Z,52.25
2023-04-29T19:40:11.503Z,52.08
2023-04-29T19:43:33.026Z,52.60
2023-04-29T19:46:54.661Z,54.27
2023-04-29T19:50:17.857Z,55.16
2023-04-29T19:53:39.381Z,55.99
2023-04-29T19:57:01.078Z,55.28
2023-04-29T20:00:22.718Z,56.89
2023-04-29T20:03:44.149Z,56.72
2023-04-29T20:07:06.524Z,57.73
2023-04-29T20:10:29.950Z,58.67
2023-04-29T20:13:52.965Z,59.30
2023-04-29T20:17:14.837Z,59.83
2023-04-29T20:20:36.377Z,59.22
2023-04-29T20:23:58.824Z,60.20
2023-04-29T20:27:20.506Z,60.25
2023-04-29T20:30:41.568Z,61.32
2023-04-29T20:34:03.077Z,62.10
2023-04-29T20:37:24.867Z,61.84
2023-04-29T20:40:47.673Z,61.40
2023-04-29T20:44:09.155Z,63.02
2023-04-29T20:47:30.602Z,63.13
2023-04-29T20:50:52.250Z,63.13
2023-04-29T20:54:13.857Z,63.36
2023-04-29T20:57:36.612Z,63.25
2023-04-29T21:00:58.312Z,63.74
2023-04-29T21:04:21.045Z,63.40
2023-04-29T21:07:42.203Z,63.18
2023-04-29T21:11:05.199Z,63.34
2023-04-29T21:14:28.641Z,62.20
2023-04-29T21:17:50.114Z,61.50
2023-04-29T21:21:12.333Z,61.32
2023-04-29T21:24:33.995Z,60.95
2023-04-29T21:27:55.340Z,61.20
2023-04-29T21:31:18.712Z,60.38
2023-04-29T21:34:40.190Z,61.47
2023-04-29T21:38:02.245Z,61.48
2023-04-29T21:41:26.488Z,61.73
2023-04-29T21:44:48.164Z,61.85
2023-04-29T21:48:15.619Z,62.73
2023-04-29T21:51:37.436Z,63.85
2023-04-29T21:54:58.678Z,63.80
2023-04-29T21:58:20.952Z,64.54
2023-04-29T22:01:49.082Z,64.42
2023-04-29T22:05:11.922Z,65.00
2023-04-29T22:08:33.577Z,65.59
2023-04-29T22:11:54.852Z,66.39
2023-04-29T22:15:27.439Z,66.46
2023-04-29T22:18:50.119Z,66.95
2023-04-29T22:22:13.135Z,67.12
2023-04-29T22:25:34.737Z,66.82
2023-04-29T22:28:56.921Z,67.08
2023-04-29T22:32:18.626Z,67.27
2023-04-29T22:35:40.380Z,66.03
2023-04-29T22:42:42.968Z,64.17
2023-04-29T22:46:05.316Z,63.94
2023-04-29T22:49:26.790Z,62.54
2023-04-29T22:52:48.157Z,62.32
2023-04-29T22:56:11.233Z,62.52
2023-04-29T22:59:32.793Z,61.85
2023-04-29T23:02:54.190Z,62.00
2023-04-29T23:06:15.957Z,62.36
2023-04-29T23:09:37.659Z,61.94
2023-04-29T23:13:00.765Z,61.28
2023-04-29T23:16:22.317Z,60.90
2023-04-29T23:19:43.876Z,60.75
2023-04-29T23:23:05.158Z,60.71
2023-04-29T23:26:27.191Z,60.39
2023-04-29T23:29:50.362Z,60.84
2023-04-29T23:33:11.593Z,60.03
2023-04-29T23:36:33.132Z,60.00
2023-04-29T23:39:56.789Z,59.93
2023-04-29T23:43:19.495Z,59.58
2023-04-29T23:46:42.421Z,59.47
2023-04-29T23:50:04.224Z,60.07
2023-04-29T23:53:25.535Z,60.41
2023-04-29T23:56:47.351Z,60.09
